createdAt,value
2019-04-13T00:00:42.597Z,63.38
2019-04-13T00:01:42.563Z,63.17
2019-04-13T00:02:42.551Z,63.38
2019-04-13T00:03:42.539Z,63.90
2019-04-13T00:04:42.529Z,64.45
2019-04-13T00:05:42.517Z,64.52
2019-04-13T00:06:42.530Z,64.73
2019-04-13T00:07:42.493Z,65.25
2019-04-13T00:08:42.482Z,64.94
2019-04-13T00:09:42.474Z,64.03
2019-04-13T00:10:42.468Z,64.45
2019-04-13T00:11:42.475Z,64.94
2019-04-13T00:12:42.440Z,65.28
2019-04-13T00:13:43.115Z,64.76
2019-04-13T00:14:42.417Z,65.07
2019-04-13T00:15:42.407Z,65.28
2019-04-13T00:16:42.420Z,64.55
2019-04-13T00:17:42.384Z,64.45
2019-04-13T00:18:42.376Z,64.86
2019-04-13T00:19:42.361Z,64.65
2019-04-13T00:20:42.352Z,65.17
2019-04-13T00:21:42.366Z,65.07
2019-04-13T00:22:42.330Z,65.07
2019-04-13T00:23:42.317Z,64.65
2019-04-13T00:24:42.306Z,64.24
2019-04-13T00:25:42.295Z,64.86
2019-04-13T00:26:42.310Z,65.07
2019-04-13T00:27:42.275Z,65.17
2019-04-13T00:28:42.263Z,65.48
2019-04-13T00:29:42.249Z,66.03
2019-04-13T00:30:42.240Z,66.44
2019-04-13T00:31:42.257Z,66.52
2019-04-13T00:32:42.218Z,66.52
2019-04-13T00:33:42.206Z,66.65
2019-04-13T00:34:42.196Z,66.35
2019-04-13T00:35:42.186Z,66.52
2019-04-13T00:36:42.199Z,66.24
2019-04-13T00:37:42.162Z,66.35
2019-04-13T00:38:42.151Z,66.44
2019-04-13T00:39:42.144Z,65.20
2019-04-13T00:40:42.134Z,66.65
2019-04-13T00:41:42.146Z,67.38
2019-04-13T00:42:42.107Z,67.27
2019-04-13T00:43:42.096Z,66.75
2019-04-13T00:44:42.085Z,66.44
2019-04-13T00:45:42.079Z,66.75
2019-04-13T00:46:42.065Z,66.65
2019-04-13T00:47:42.078Z,66.03
2019-04-13T00:48:42.042Z,66.24
2019-04-13T00:49:42.033Z,66.06
2019-04-13T00:50:42.023Z,66.24
2019-04-13T00:51:42.010Z,66.35
2019-04-13T00:52:42.022Z,67.20
2019-04-13T00:53:41.986Z,67.30
2019-04-13T00:54:42.026Z,67.30
2019-04-13T00:55:41.964Z,67.30
2019-04-13T00:56:41.959Z,67.10
2019-04-13T00:57:41.967Z,67.41
2019-04-13T00:58:41.930Z,67.20
2019-04-13T00:59:41.923Z,66.78
2019-04-13T01:00:41.907Z,67.30
2019-04-13T01:01:41.899Z,66.99
2019-04-13T01:02:41.911Z,67.41
2019-04-13T01:03:41.877Z,67.30
2019-04-13T01:04:53.055Z,66.82
2019-04-13T01:05:42.851Z,67.30
2019-04-13T01:06:41.844Z,66.78
2019-04-13T01:07:41.876Z,66.38
2019-04-13T01:08:41.820Z,66.47
2019-04-13T01:09:41.809Z,66.38
2019-04-13T01:10:41.795Z,66.47
2019-04-13T01:11:41.786Z,66.17
2019-04-13T01:12:41.800Z,66.68
2019-04-13T01:13:41.763Z,67.41
2019-04-13T01:14:41.750Z,66.99
2019-04-13T01:15:41.738Z,67.30
2019-04-13T01:16:41.730Z,66.61
2019-04-13T01:17:41.725Z,66.47
2019-04-13T01:18:41.731Z,66.17
2019-04-13T01:19:41.695Z,66.06
2019-04-13T01:20:41.684Z,65.47
2019-04-13T01:21:41.676Z,65.13
2019-04-13T01:22:41.665Z,65.37
2019-04-13T01:23:41.681Z,65.34
2019-04-13T01:24:41.641Z,65.23
2019-04-13T01:25:41.630Z,65.99
2019-04-13T01:26:41.619Z,66.38
2019-04-13T01:27:41.609Z,66.41
2019-04-13T01:28:41.619Z,67.03
2019-04-13T01:29:41.585Z,66.51
2019-04-13T01:30:41.575Z,66.72
2019-04-13T01:31:41.564Z,66.82
2019-04-13T01:32:41.551Z,66.20
2019-04-13T01:33:41.566Z,66.72
2019-04-13T01:34:41.527Z,66.51
2019-04-13T01:35:41.517Z,66.61
2019-04-13T01:36:41.508Z,66.51
2019-04-13T01:37:41.495Z,66.61
2019-04-13T01:38:41.509Z,64.95
2019-04-13T01:39:41.474Z,65.06
2019-04-13T01:40:41.460Z,66.09
2019-04-13T01:41:41.451Z,67.24
2019-04-13T01:42:41.444Z,67.03
2019-04-13T01:43:41.454Z,66.09
2019-04-13T01:44:41.417Z,65.99
2019-04-13T01:45:41.406Z,66.20
2019-04-13T01:46:41.399Z,66.09
2019-04-13T01:47:41.382Z,66.93
2019-04-13T01:48:41.397Z,67.47
2019-04-13T01:49:41.363Z,67.58
2019-04-13T01:50:41.351Z,67.47
2019-04-13T01:51:41.338Z,67.37
2019-04-13T01:52:41.328Z,67.58
2019-04-13T01:53:41.345Z,68.07
2019-04-13T01:54:41.308Z,67.16
2019-04-13T01:55:41.293Z,67.79
2019-04-13T01:56:41.284Z,67.86
2019-04-13T01:57:41.271Z,67.06
2019-04-13T01:58:41.287Z,67.58
2019-04-13T01:59:41.248Z,67.47
2019-04-13T02:00:41.236Z,67.58
2019-04-13T02:01:41.227Z,67.16
2019-04-13T02:02:41.219Z,67.47
2019-04-13T02:03:41.231Z,67.16
2019-04-13T02:04:41.191Z,67.06
2019-04-13T02:05:41.183Z,67.68
2019-04-13T02:06:41.169Z,67.47
2019-04-13T02:07:41.172Z,67.27
2019-04-13T02:08:41.187Z,66.96
2019-04-13T02:09:41.137Z,67.47
2019-04-13T02:10:41.127Z,66.96
2019-04-13T02:11:41.118Z,67.47
2019-04-13T02:12:41.108Z,66.64
2019-04-13T02:13:41.094Z,66.78
2019-04-13T02:14:41.108Z,66.75
2019-04-13T02:15:41.069Z,66.85
2019-04-13T02:16:41.059Z,66.85
2019-04-13T02:17:41.049Z,67.47
2019-04-13T02:18:41.040Z,67.50
2019-04-13T02:19:41.051Z,67.50
2019-04-13T02:20:41.013Z,66.88
2019-04-13T02:21:41.002Z,66.78
2019-04-13T02:22:40.993Z,66.64
2019-04-13T02:23:40.979Z,66.67
2019-04-13T02:24:40.992Z,66.88
2019-04-13T02:25:40.960Z,67.30
2019-04-13T02:26:40.952Z,67.40
2019-04-13T02:27:40.936Z,67.19
2019-04-13T02:28:40.924Z,66.88
2019-04-13T02:29:40.939Z,67.61
2019-04-13T02:30:40.908Z,67.30
2019-04-13T02:31:40.890Z,67.54
2019-04-13T02:32:40.881Z,67.50
2019-04-13T02:33:40.880Z,67.40
2019-04-13T02:34:40.883Z,67.64
2019-04-13T02:35:40.846Z,68.16
2019-04-13T02:36:40.835Z,67.95
2019-04-13T02:37:40.823Z,67.85
2019-04-13T02:38:40.815Z,67.43
2019-04-13T02:39:40.825Z,67.64
2019-04-13T02:40:40.789Z,68.16
2019-04-13T02:41:40.778Z,68.78
2019-04-13T02:42:40.775Z,67.95
2019-04-13T02:43:40.774Z,68.05
2019-04-13T02:44:40.768Z,67.95
2019-04-13T02:45:40.731Z,68.47
2019-04-13T02:46:40.722Z,69.09
2019-04-13T02:47:40.712Z,69.43
2019-04-13T02:48:40.698Z,69.43
2019-04-13T02:49:40.695Z,69.33
2019-04-13T02:50:40.700Z,69.12
2019-04-13T02:51:40.685Z,69.37
2019-04-13T02:52:40.668Z,69.47
2019-04-13T02:53:40.644Z,68.74
2019-04-13T02:54:40.658Z,68.95
2019-04-13T02:55:40.621Z,69.68
2019-04-13T02:56:40.609Z,69.78
2019-04-13T02:57:40.596Z,69.99
2019-04-13T02:58:40.586Z,69.78
2019-04-13T02:59:40.578Z,70.20
2019-04-13T03:00:40.595Z,71.03
2019-04-13T03:01:40.553Z,70.64
2019-04-13T03:02:40.542Z,70.75
2019-04-13T03:03:40.531Z,70.75
2019-04-13T03:04:40.518Z,70.75
2019-04-13T03:05:46.839Z,70.85
2019-04-13T03:06:41.496Z,70.75
2019-04-13T03:07:40.487Z,70.85
2019-04-13T03:08:40.475Z,70.92
2019-04-13T03:09:40.462Z,70.64
2019-04-13T03:10:40.478Z,70.75
2019-04-13T03:11:40.441Z,70.54
2019-04-13T03:12:40.433Z,70.54
2019-04-13T03:13:40.418Z,70.95
2019-04-13T03:14:40.408Z,70.85
2019-04-13T03:15:40.428Z,70.75
2019-04-13T03:16:40.383Z,70.75
2019-04-13T03:17:40.373Z,70.95
2019-04-13T03:18:40.363Z,70.95
2019-04-13T03:19:40.353Z,70.82
2019-04-13T03:20:40.365Z,70.09
2019-04-13T03:21:40.330Z,69.89
2019-04-13T03:22:40.316Z,70.20
2019-04-13T03:23:40.306Z,70.40
2019-04-13T03:24:40.294Z,70.43
2019-04-13T03:25:40.311Z,70.33
2019-04-13T03:26:40.273Z,70.61
2019-04-13T03:27:40.262Z,70.85
2019-04-13T03:28:40.250Z,70.95
2019-04-13T03:29:40.238Z,71.06
2019-04-13T03:30:40.254Z,71.48
2019-04-13T03:31:40.218Z,71.72
2019-04-13T03:32:40.210Z,71.72
2019-04-13T03:33:40.197Z,71.82
2019-04-13T03:34:40.182Z,71.61
2019-04-13T03:35:40.175Z,71.69
2019-04-13T03:36:40.186Z,71.69
2019-04-13T03:37:40.149Z,71.48
2019-04-13T03:38:40.138Z,71.69
2019-04-13T03:39:40.129Z,71.27
2019-04-13T03:40:40.118Z,71.17
2019-04-13T03:41:40.131Z,70.75
2019-04-13T03:42:40.095Z,70.33
2019-04-13T03:43:40.084Z,69.92
2019-04-13T03:44:40.070Z,69.81
2019-04-13T03:45:40.062Z,69.99
2019-04-13T03:46:40.073Z,69.99
2019-04-13T03:47:40.037Z,69.68
2019-04-13T03:48:40.030Z,69.68
2019-04-13T03:49:40.015Z,68.95
2019-04-13T03:50:40.015Z,69.37
2019-04-13T03:51:40.020Z,69.05
2019-04-13T03:52:39.981Z,69.15
2019-04-13T03:53:39.969Z,69.89
2019-04-13T03:54:39.960Z,69.68
2019-04-13T03:55:39.952Z,69.47
2019-04-13T03:56:39.963Z,69.47
2019-04-13T03:57:39.926Z,69.15
2019-04-13T03:58:39.918Z,69.15
2019-04-13T03:59:39.903Z,69.15
2019-04-13T04:00:39.893Z,69.68
2019-04-13T04:01:39.907Z,69.37
2019-04-13T04:02:39.868Z,69.26
2019-04-13T04:03:39.860Z,69.78
2019-04-13T04:04:39.854Z,69.68
2019-04-13T04:05:39.838Z,69.99
2019-04-13T04:06:39.852Z,69.99
2019-04-13T04:07:39.814Z,69.99
2019-04-13T04:08:39.804Z,69.78
2019-04-13T04:09:39.792Z,69.78
2019-04-13T04:10:39.824Z,69.68
2019-04-13T04:11:39.798Z,69.78
2019-04-13T04:12:39.758Z,70.20
2019-04-13T04:13:39.748Z,70.20
2019-04-13T04:14:39.737Z,70.20
2019-04-13T04:15:39.726Z,69.68
2019-04-13T04:16:39.740Z,70.51
2019-04-13T04:17:39.702Z,70.51
2019-04-13T04:18:39.691Z,70.51
2019-04-13T04:19:39.682Z,70.30
2019-04-13T04:20:39.670Z,70.61
2019-04-13T04:21:39.686Z,70.72
2019-04-13T04:22:42.136Z,70.92
2019-04-13T04:23:39.637Z,70.51
2019-04-13T04:24:39.625Z,70.61
2019-04-13T04:25:39.618Z,70.82
2019-04-13T04:26:39.613Z,71.03
2019-04-13T04:27:39.614Z,71.03
2019-04-13T04:28:39.580Z,70.92
2019-04-13T04:29:39.569Z,71.03
2019-04-13T04:30:39.556Z,70.68
2019-04-13T04:31:39.552Z,70.72
2019-04-13T04:32:39.561Z,71.55
2019-04-13T04:33:39.523Z,71.55
2019-04-13T04:34:39.515Z,71.34
2019-04-13T04:35:39.504Z,71.86
2019-04-13T04:36:39.491Z,71.86
2019-04-13T04:37:39.502Z,72.17
2019-04-13T04:38:39.469Z,72.80
2019-04-13T04:39:39.456Z,72.62
2019-04-13T04:40:39.449Z,72.52
2019-04-13T04:41:39.435Z,73.14
2019-04-13T04:42:39.447Z,72.72
2019-04-13T04:43:39.411Z,72.10
2019-04-13T04:44:39.402Z,71.89
2019-04-13T04:45:39.389Z,72.28
2019-04-13T04:46:39.377Z,72.07
2019-04-13T04:47:39.392Z,71.75
2019-04-13T04:48:39.355Z,72.17
2019-04-13T04:49:39.351Z,71.86
2019-04-13T04:50:39.340Z,71.86
2019-04-13T04:51:39.324Z,71.86
2019-04-13T04:52:39.338Z,72.07
2019-04-13T04:53:39.301Z,72.31
2019-04-13T04:54:39.291Z,72.49
2019-04-13T04:55:39.298Z,72.38
2019-04-13T04:56:39.266Z,71.97
2019-04-13T04:57:39.282Z,71.86
2019-04-13T04:58:39.263Z,72.28
2019-04-13T04:59:39.253Z,72.28
2019-04-13T05:00:39.222Z,71.86
2019-04-13T05:01:39.212Z,71.97
2019-04-13T05:02:39.224Z,72.17
2019-04-13T05:03:39.190Z,71.97
2019-04-13T05:04:39.181Z,71.65
2019-04-13T05:05:39.166Z,71.55
2019-04-13T05:06:39.162Z,71.75
2019-04-13T05:07:39.168Z,72.17
2019-04-13T05:08:39.132Z,72.07
2019-04-13T05:09:39.121Z,71.97
2019-04-13T05:10:39.112Z,72.03
2019-04-13T05:11:39.098Z,71.86
2019-04-13T05:12:39.112Z,71.97
2019-04-13T05:13:39.077Z,71.51
2019-04-13T05:14:39.067Z,71.20
2019-04-13T05:15:39.058Z,71.62
2019-04-13T05:16:39.044Z,71.72
2019-04-13T05:17:39.063Z,71.72
2019-04-13T05:18:39.023Z,71.93
2019-04-13T05:19:39.013Z,71.93
2019-04-13T05:20:39.000Z,71.62
2019-04-13T05:21:38.988Z,71.62
2019-04-13T05:22:38.978Z,71.62
2019-04-13T05:23:38.990Z,71.62
2019-04-13T05:24:38.955Z,71.59
2019-04-13T05:25:38.948Z,71.51
2019-04-13T05:26:38.931Z,71.41
2019-04-13T05:27:38.922Z,71.31
2019-04-13T05:28:38.936Z,71.41
2019-04-13T05:29:38.897Z,71.72
2019-04-13T05:30:38.888Z,71.72
2019-04-13T05:31:38.875Z,71.51
2019-04-13T05:32:38.867Z,71.72
2019-04-13T05:33:38.880Z,71.93
2019-04-13T05:34:38.841Z,71.62
2019-04-13T05:35:38.831Z,72.00
2019-04-13T05:36:47.657Z,72.14
2019-04-13T05:37:39.808Z,71.72
2019-04-13T05:38:38.822Z,72.00
2019-04-13T05:39:38.787Z,72.21
2019-04-13T05:40:38.776Z,72.00
2019-04-13T05:41:38.767Z,72.00
2019-04-13T05:42:38.753Z,72.11
2019-04-13T05:43:38.766Z,71.80
2019-04-13T05:44:38.731Z,71.90
2019-04-13T05:45:38.723Z,72.21
2019-04-13T05:46:38.709Z,72.21
2019-04-13T05:47:38.695Z,71.69
2019-04-13T05:48:38.712Z,71.80
2019-04-13T05:49:38.673Z,71.97
2019-04-13T05:50:38.665Z,71.69
2019-04-13T05:51:38.651Z,71.59
2019-04-13T05:52:38.659Z,72.00
2019-04-13T05:53:38.657Z,71.76
2019-04-13T05:54:39.501Z,71.80
2019-04-13T05:55:38.606Z,71.80
2019-04-13T05:56:38.639Z,71.66
2019-04-13T05:57:39.007Z,71.34
2019-04-13T05:58:38.649Z,71.34
2019-04-13T05:59:38.561Z,71.55
2019-04-13T06:00:38.557Z,71.31
2019-04-13T06:01:38.543Z,71.34
2019-04-13T06:02:38.555Z,71.34
2019-04-13T06:03:38.544Z,70.90
2019-04-13T06:04:38.520Z,71.00
2019-04-13T06:05:38.496Z,71.11
2019-04-13T06:06:38.483Z,70.72
2019-04-13T06:07:38.472Z,70.48
2019-04-13T06:08:40.563Z,70.69
2019-04-13T06:09:38.449Z,70.72
2019-04-13T06:10:38.441Z,70.93
2019-04-13T06:11:38.429Z,71.14
2019-04-13T06:12:38.417Z,70.83
2019-04-13T06:13:38.409Z,71.45
2019-04-13T06:14:39.666Z,71.00
2019-04-13T06:15:38.384Z,71.45
2019-04-13T06:16:40.265Z,71.14
2019-04-13T06:17:38.362Z,71.42
2019-04-13T06:18:38.355Z,71.55
2019-04-13T06:19:38.364Z,71.83
2019-04-13T06:20:38.328Z,71.42
2019-04-13T06:21:40.533Z,70.90
2019-04-13T06:22:38.304Z,70.87
2019-04-13T06:23:38.295Z,70.59
2019-04-13T06:24:38.308Z,70.07
2019-04-13T06:25:38.269Z,70.17
2019-04-13T06:26:41.137Z,70.69
2019-04-13T06:27:42.201Z,70.59
2019-04-13T06:28:38.236Z,70.66
2019-04-13T06:29:38.253Z,70.45
2019-04-13T06:30:38.215Z,70.14
2019-04-13T06:31:38.206Z,70.45
2019-04-13T06:32:38.193Z,70.14
2019-04-13T06:33:38.183Z,69.73
2019-04-13T06:34:38.200Z,69.31
2019-04-13T06:35:38.159Z,69.59
2019-04-13T06:36:41.567Z,68.96
2019-04-13T06:37:39.861Z,69.21
2019-04-13T06:38:38.126Z,68.79
2019-04-13T06:39:38.142Z,68.96
2019-04-13T06:40:38.421Z,68.96
2019-04-13T06:41:38.092Z,69.00
2019-04-13T06:42:38.087Z,68.17
2019-04-13T06:43:38.068Z,68.17
2019-04-13T06:44:38.082Z,69.00
2019-04-13T06:45:38.049Z,69.21
2019-04-13T06:46:38.036Z,69.52
2019-04-13T06:47:38.025Z,69.42
2019-04-13T06:48:38.014Z,69.59
2019-04-13T06:49:38.026Z,69.62
2019-04-13T06:50:37.992Z,69.10
2019-04-13T06:51:37.981Z,69.73
2019-04-13T06:52:37.977Z,69.62
2019-04-13T06:53:38.587Z,69.52
2019-04-13T06:54:37.971Z,69.52
2019-04-13T06:55:37.936Z,70.04
2019-04-13T06:56:37.922Z,69.42
2019-04-13T06:57:37.912Z,69.62
2019-04-13T06:58:37.899Z,69.62
2019-04-13T06:59:39.289Z,69.59
2019-04-13T07:00:37.879Z,69.27
2019-04-13T07:01:37.865Z,69.07
2019-04-13T07:02:37.855Z,68.96
2019-04-13T07:03:37.846Z,68.79
2019-04-13T07:04:40.404Z,68.27
2019-04-13T07:05:37.847Z,69.10
2019-04-13T07:06:47.189Z,69.21
2019-04-13T07:07:45.511Z,69.00
2019-04-13T07:08:38.950Z,69.31
2019-04-13T07:09:40.574Z,69.59
2019-04-13T07:10:44.543Z,69.27
2019-04-13T07:11:38.789Z,68.13
2019-04-13T07:12:37.751Z,68.13
2019-04-13T07:13:37.731Z,67.72
2019-04-13T07:14:37.721Z,68.03
2019-04-13T07:15:46.258Z,68.55
2019-04-13T07:16:43.289Z,68.44
2019-04-13T07:17:38.686Z,68.55
2019-04-13T07:18:37.677Z,68.96
2019-04-13T07:19:41.512Z,68.44
2019-04-13T07:20:37.679Z,68.13
2019-04-13T07:21:38.170Z,68.55
2019-04-13T07:22:38.675Z,68.76
2019-04-13T07:23:37.618Z,68.65
2019-04-13T07:24:37.609Z,68.96
2019-04-13T07:25:37.620Z,68.73
2019-04-13T07:26:40.041Z,69.24
2019-04-13T07:27:37.574Z,69.14
2019-04-13T07:28:37.566Z,68.90
2019-04-13T07:29:37.552Z,68.90
2019-04-13T07:30:37.564Z,68.07
2019-04-13T07:31:37.531Z,67.73
2019-04-13T07:32:37.519Z,67.32
2019-04-13T07:33:37.507Z,67.32
2019-04-13T07:34:37.496Z,66.80
2019-04-13T07:35:40.501Z,67.21
2019-04-13T07:36:41.313Z,66.80
2019-04-13T07:37:37.467Z,66.66
2019-04-13T07:38:37.452Z,66.25
2019-04-13T07:39:37.438Z,66.12
2019-04-13T07:40:37.466Z,66.02
2019-04-13T07:41:37.416Z,66.02
2019-04-13T07:42:39.769Z,66.53
2019-04-13T07:43:37.399Z,65.81
2019-04-13T07:44:37.391Z,64.98
2019-04-13T07:45:37.381Z,65.19
2019-04-13T07:46:37.391Z,65.08
2019-04-13T07:47:37.352Z,65.19
2019-04-13T07:48:37.340Z,64.67
2019-04-13T07:49:37.328Z,65.19
2019-04-13T07:50:37.318Z,65.19
2019-04-13T07:51:37.331Z,64.87
2019-04-13T07:52:37.313Z,65.05
2019-04-13T07:53:37.287Z,64.25
2019-04-13T07:54:37.275Z,64.39
2019-04-13T07:55:37.264Z,64.28
2019-04-13T07:56:37.291Z,64.80
2019-04-13T07:57:37.946Z,65.01
2019-04-13T07:58:37.229Z,65.25
2019-04-13T07:59:37.221Z,65.01
2019-04-13T08:00:37.207Z,65.22
2019-04-13T08:01:37.223Z,65.32
2019-04-13T08:02:37.188Z,64.80
2019-04-13T08:03:37.178Z,65.14
2019-04-13T08:04:37.166Z,65.22
2019-04-13T08:05:37.152Z,65.01
2019-04-13T08:06:37.168Z,64.70
2019-04-13T08:07:49.168Z,64.15
2019-04-13T08:08:40.153Z,64.46
2019-04-13T08:09:37.110Z,64.36
2019-04-13T08:10:37.097Z,64.12
2019-04-13T08:11:37.120Z,63.78
2019-04-13T08:12:37.078Z,62.88
2019-04-13T08:13:37.065Z,63.50
2019-04-13T08:14:37.056Z,62.75
2019-04-13T08:15:37.047Z,61.33
2019-04-13T08:16:37.062Z,61.64
2019-04-13T08:17:37.020Z,61.92
2019-04-13T08:18:39.302Z,61.92
2019-04-13T08:19:36.998Z,62.13
2019-04-13T08:20:36.990Z,61.51
2019-04-13T08:21:37.003Z,61.71
2019-04-13T08:22:37.413Z,60.75
2019-04-13T08:23:36.958Z,60.65
2019-04-13T08:24:36.943Z,60.47
2019-04-13T08:25:37.231Z,60.86
2019-04-13T08:26:36.945Z,60.65
2019-04-13T08:27:36.908Z,61.61
2019-04-13T08:28:36.898Z,61.48
2019-04-13T08:29:36.885Z,60.58
2019-04-13T08:30:36.878Z,60.65
2019-04-13T08:31:36.873Z,60.78
2019-04-13T08:32:36.884Z,61.38
2019-04-13T08:33:36.843Z,62.10
2019-04-13T08:34:36.830Z,60.96
2019-04-13T08:35:36.819Z,59.31
2019-04-13T08:36:36.812Z,58.48
2019-04-13T08:37:51.990Z,59.13
2019-04-13T08:38:37.797Z,59.75
2019-04-13T08:39:36.779Z,60.37
2019-04-13T08:40:36.767Z,60.16
2019-04-13T08:41:36.757Z,60.47
2019-04-13T08:42:36.771Z,61.30
2019-04-13T08:43:36.795Z,61.10
2019-04-13T08:44:37.433Z,60.99
2019-04-13T08:45:36.711Z,60.78
2019-04-13T08:46:36.698Z,61.54
2019-04-13T08:47:36.721Z,61.95
2019-04-13T08:48:36.686Z,62.54
2019-04-13T08:49:36.666Z,63.09
2019-04-13T08:50:36.655Z,63.29
2019-04-13T08:51:36.642Z,65.05
2019-04-13T08:52:36.659Z,64.84
2019-04-13T08:53:36.626Z,64.84
2019-04-13T08:54:36.610Z,64.74
2019-04-13T08:55:39.779Z,64.74
2019-04-13T08:56:36.589Z,64.95
2019-04-13T08:57:36.606Z,65.19
2019-04-13T08:58:37.642Z,66.63
2019-04-13T08:59:36.867Z,67.12
2019-04-13T09:00:36.545Z,67.46
2019-04-13T09:01:36.532Z,68.60
2019-04-13T09:02:36.545Z,69.12
2019-04-13T09:03:36.509Z,67.77
2019-04-13T09:04:36.505Z,68.60
2019-04-13T09:05:36.485Z,69.01
2019-04-13T09:06:36.475Z,69.32
2019-04-13T09:07:39.135Z,70.57
2019-04-13T09:08:36.450Z,70.36
2019-04-13T09:09:38.769Z,69.12
2019-04-13T09:10:37.338Z,70.39
2019-04-13T09:11:36.420Z,71.01
2019-04-13T09:12:36.622Z,70.77
2019-04-13T09:13:36.393Z,71.08
2019-04-13T09:14:36.383Z,71.50
2019-04-13T09:15:37.342Z,69.64
2019-04-13T09:16:37.327Z,68.60
2019-04-13T09:17:37.570Z,69.71
2019-04-13T09:18:36.364Z,69.40
2019-04-13T09:19:40.012Z,69.29
2019-04-13T09:20:38.447Z,68.64
2019-04-13T09:21:36.303Z,68.12
2019-04-13T09:22:36.291Z,68.54
2019-04-13T09:23:37.367Z,68.33
2019-04-13T09:24:36.267Z,66.88
2019-04-13T09:25:36.264Z,67.78
2019-04-13T09:26:37.163Z,68.30
2019-04-13T09:27:40.626Z,67.27
2019-04-13T09:28:36.247Z,66.75
2019-04-13T09:29:36.213Z,68.16
2019-04-13T09:30:36.200Z,66.93
2019-04-13T09:31:36.189Z,67.24
2019-04-13T09:32:36.179Z,66.61
2019-04-13T09:33:36.193Z,67.41
2019-04-13T09:34:36.154Z,65.89
2019-04-13T09:35:36.146Z,65.79
2019-04-13T09:36:36.135Z,67.00
2019-04-13T09:37:36.124Z,66.72
2019-04-13T09:38:42.163Z,65.17
2019-04-13T09:39:37.138Z,64.14
2019-04-13T09:40:36.089Z,64.96
2019-04-13T09:41:36.313Z,65.06
2019-04-13T09:42:36.072Z,64.86
2019-04-13T09:43:36.079Z,65.55
2019-04-13T09:44:36.043Z,65.06
2019-04-13T09:45:36.029Z,63.49
2019-04-13T09:46:37.700Z,62.48
2019-04-13T09:47:36.011Z,62.55
2019-04-13T09:48:36.000Z,62.04
2019-04-13T09:49:36.009Z,60.80
2019-04-13T09:50:36.927Z,61.11
2019-04-13T09:51:39.636Z,61.01
2019-04-13T09:52:35.949Z,60.63
2019-04-13T09:53:35.938Z,61.35
2019-04-13T09:54:35.951Z,62.59
2019-04-13T09:55:35.918Z,64.24
2019-04-13T09:56:37.613Z,64.14
2019-04-13T09:57:35.901Z,64.21
2019-04-13T09:58:35.955Z,63.77
2019-04-13T09:59:35.897Z,63.87
2019-04-13T10:00:35.859Z,63.84
2019-04-13T10:01:35.849Z,62.57
2019-04-13T10:02:35.837Z,62.68
2019-04-13T10:03:39.240Z,62.47
2019-04-13T10:04:35.839Z,61.00
2019-04-13T10:05:35.800Z,59.35
2019-04-13T10:06:35.789Z,58.50
2019-04-13T10:07:35.782Z,57.96
2019-04-13T10:08:35.767Z,58.06
2019-04-13T10:09:35.784Z,58.86
2019-04-13T10:10:35.746Z,58.24
2019-04-13T10:11:35.734Z,59.47
2019-04-13T10:12:35.727Z,58.34
2019-04-13T10:13:35.714Z,59.09
2019-04-13T10:14:36.454Z,58.68
2019-04-13T10:15:35.691Z,58.78
2019-04-13T10:16:35.677Z,59.17
2019-04-13T10:17:35.669Z,58.42
2019-04-13T10:18:35.655Z,58.54
2019-04-13T10:19:35.671Z,58.42
2019-04-13T10:20:35.632Z,58.18
2019-04-13T10:21:35.622Z,57.78
2019-04-13T10:22:35.609Z,56.13
2019-04-13T10:23:35.602Z,57.16
2019-04-13T10:24:35.612Z,56.00
2019-04-13T10:25:38.189Z,55.59
2019-04-13T10:26:35.564Z,55.15
2019-04-13T10:27:35.554Z,55.26
2019-04-13T10:28:36.254Z,54.43
2019-04-13T10:29:35.567Z,52.87
2019-04-13T10:30:35.525Z,51.95
2019-04-13T10:31:35.513Z,51.66
2019-04-13T10:32:35.497Z,50.66
2019-04-13T10:33:35.491Z,50.14
2019-04-13T10:34:35.487Z,49.04
2019-04-13T10:35:35.489Z,49.55
2019-04-13T10:36:35.453Z,50.50
2019-04-13T10:37:35.442Z,51.24
2019-04-13T10:38:35.432Z,51.26
2019-04-13T10:39:35.420Z,50.32
2019-04-13T10:40:35.433Z,51.57
2019-04-13T10:41:35.398Z,53.22
2019-04-13T10:42:35.383Z,53.63
2019-04-13T10:43:35.376Z,52.71
2019-04-13T10:44:35.362Z,52.71
2019-04-13T10:45:35.376Z,51.57
2019-04-13T10:46:35.340Z,51.81
2019-04-13T10:47:35.329Z,52.50
2019-04-13T10:48:35.325Z,52.42
2019-04-13T10:49:35.319Z,52.01
2019-04-13T10:50:35.321Z,52.86
2019-04-13T10:51:35.285Z,53.71
2019-04-13T10:52:35.272Z,54.12
2019-04-13T10:53:35.261Z,54.12
2019-04-13T10:54:35.249Z,54.53
2019-04-13T10:55:35.241Z,52.98
2019-04-13T10:56:35.258Z,52.58
2019-04-13T10:57:35.219Z,52.78
2019-04-13T10:58:35.205Z,53.71
2019-04-13T10:59:35.194Z,52.06
2019-04-13T11:00:35.184Z,52.68
2019-04-13T11:01:35.195Z,53.09
2019-04-13T11:02:35.160Z,53.09
2019-04-13T11:03:35.148Z,52.98
2019-04-13T11:04:35.140Z,54.33
2019-04-13T11:05:35.124Z,53.09
2019-04-13T11:06:35.141Z,54.33
2019-04-13T11:07:35.104Z,53.11
2019-04-13T11:08:35.092Z,53.71
2019-04-13T11:09:35.080Z,53.50
2019-04-13T11:10:35.417Z,54.12
2019-04-13T11:11:35.098Z,54.12
2019-04-13T11:12:35.045Z,53.58
2019-04-13T11:13:35.036Z,53.27
2019-04-13T11:14:35.026Z,53.91
2019-04-13T11:15:35.012Z,54.10
2019-04-13T11:16:35.026Z,53.68
2019-04-13T11:17:34.989Z,54.20
2019-04-13T11:18:37.000Z,53.48
2019-04-13T11:19:35.472Z,53.58
2019-04-13T11:20:34.970Z,52.03
2019-04-13T11:21:34.971Z,50.92
2019-04-13T11:22:34.933Z,52.37
2019-04-13T11:23:36.409Z,52.88
2019-04-13T11:24:35.911Z,52.16
2019-04-13T11:25:34.900Z,51.05
2019-04-13T11:26:34.913Z,52.06
2019-04-13T11:27:37.073Z,52.78
2019-04-13T11:28:36.774Z,53.71
2019-04-13T11:29:34.853Z,55.57
2019-04-13T11:30:34.842Z,56.57
2019-04-13T11:31:36.153Z,56.46
2019-04-13T11:32:34.825Z,56.77
2019-04-13T11:33:34.810Z,56.70
2019-04-13T11:34:34.798Z,58.22
2019-04-13T11:35:35.659Z,58.97
2019-04-13T11:36:34.802Z,58.99
2019-04-13T11:37:35.389Z,60.21
2019-04-13T11:38:34.758Z,60.13
2019-04-13T11:39:40.494Z,60.23
2019-04-13T11:40:35.730Z,60.44
2019-04-13T11:41:34.885Z,60.64
2019-04-13T11:42:34.712Z,60.67
2019-04-13T11:43:34.697Z,62.01
2019-04-13T11:44:34.689Z,62.53
2019-04-13T11:45:34.677Z,63.04
2019-04-13T11:46:34.663Z,63.67
2019-04-13T11:47:34.680Z,64.90
2019-04-13T11:48:34.642Z,66.17
2019-04-13T11:49:34.631Z,67.51
2019-04-13T11:50:34.621Z,68.16
2019-04-13T11:51:34.611Z,69.71
2019-04-13T11:52:34.624Z,69.74
2019-04-13T11:53:34.587Z,71.30
2019-04-13T11:54:34.574Z,71.12
2019-04-13T11:55:34.810Z,72.05
2019-04-13T11:56:37.041Z,72.50
2019-04-13T11:57:34.567Z,72.81
2019-04-13T11:58:34.532Z,73.54
2019-04-13T11:59:34.519Z,73.54
2019-04-13T12:00:34.508Z,73.64
2019-04-13T12:01:34.495Z,73.02
2019-04-13T12:02:34.507Z,73.81
2019-04-13T12:03:34.473Z,72.78
2019-04-13T12:04:34.463Z,73.60
2019-04-13T12:05:34.451Z,73.81
2019-04-13T12:06:36.677Z,71.43
2019-04-13T12:07:34.454Z,71.84
2019-04-13T12:08:34.417Z,72.67
2019-04-13T12:09:48.995Z,73.29
2019-04-13T12:10:35.393Z,73.71
2019-04-13T12:11:34.381Z,72.26
2019-04-13T12:12:34.373Z,73.16
2019-04-13T12:13:34.385Z,73.88
2019-04-13T12:14:35.267Z,73.54
2019-04-13T12:15:38.401Z,73.05
2019-04-13T12:16:34.324Z,73.67
2019-04-13T12:17:34.315Z,74.26
2019-04-13T12:18:34.328Z,73.85
2019-04-13T12:19:34.293Z,73.85
2019-04-13T12:20:34.320Z,74.05
2019-04-13T12:21:34.266Z,73.09
2019-04-13T12:22:34.259Z,72.81
2019-04-13T12:23:34.269Z,72.30
2019-04-13T12:24:34.239Z,71.67
2019-04-13T12:25:34.221Z,69.85
2019-04-13T12:26:34.210Z,71.19
2019-04-13T12:27:34.582Z,72.16
2019-04-13T12:28:34.210Z,72.16
2019-04-13T12:29:38.464Z,72.50
2019-04-13T12:30:34.165Z,72.39
2019-04-13T12:31:34.151Z,73.02
2019-04-13T12:32:34.139Z,73.84
2019-04-13T12:33:34.153Z,74.84
2019-04-13T12:34:34.116Z,73.91
2019-04-13T12:35:34.251Z,75.22
2019-04-13T12:36:34.093Z,74.19
2019-04-13T12:37:35.330Z,73.71
2019-04-13T12:38:34.094Z,72.74
2019-04-13T12:39:34.062Z,71.50
2019-04-13T12:40:34.917Z,71.16
2019-04-13T12:41:34.038Z,71.50
2019-04-13T12:42:34.383Z,70.57
2019-04-13T12:43:34.040Z,71.98
2019-04-13T12:44:37.735Z,73.54
2019-04-13T12:45:33.993Z,72.36
2019-04-13T12:46:33.979Z,71.33
2019-04-13T12:47:33.967Z,68.13
2019-04-13T12:48:33.980Z,67.21
2019-04-13T12:49:33.944Z,67.93
2019-04-13T12:50:33.933Z,67.72
2019-04-13T12:51:33.926Z,67.48
2019-04-13T12:52:33.909Z,69.13